North Salt Lake, Utah
Current Conditions -  °F | °C
As of 11:53 AM on Wednesday 26 Nov 2014 (Local Time) from KSLC Reporting Station
Few Clouds Few Clouds  
Wind Chill: 56°   Ceiling: Unl
Heat Index: 56°   Visibility: 10mi
Dew Point: 30°   Wind: 7mph
Humidity: 37%   Direction: 170°S
Pressure: 30.38"   Gusts: NA
Location:  40.84°N, 111.91°W
Report Text: KSLC 261853Z 17006KT 10SM FEW070 FEW110 FEW200 13/M01 A3038 RMK AO2 SLP274 ACSL DSNT NE AND SE T01331011
Loading
Personal Weather Stations






























Interactive Weather Map New forecast layout! Learn more

10-Day Weather Forecast

Advertisements
Track Severe Weather on mobile